sensor_id;sensor_type;location;lat;lon;timestamp;P1;durP1;ratioP1;P2;durP2;ratioP2
55527;SDS011;52818;43.308;21.916;2024-03-29T00:00:05;5.30;;;1.40;;
55527;SDS011;52818;43.308;21.916;2024-03-29T00:02:04;5.40;;;1.30;;
55527;SDS011;52818;43.308;21.916;2024-03-29T00:04:05;4.90;;;1.40;;
55527;SDS011;52818;43.308;21.916;2024-03-29T00:06:05;6.30;;;1.60;;
55527;SDS011;52818;43.308;21.916;2024-03-29T00:08:05;6.50;;;1.80;;
55527;SDS011;52818;43.308;21.916;2024-03-29T00:10:35;5.40;;;1.50;;
55527;SDS011;52818;43.308;21.916;2024-03-29T00:12:35;8.00;;;1.90;;
55527;SDS011;52818;43.308;21.916;2024-03-29T00:14:35;4.70;;;1.40;;
55527;SDS011;52818;43.308;21.916;2024-03-29T00:16:35;6.60;;;1.50;;
55527;SDS011;52818;43.308;21.916;2024-03-29T00:18:35;4.80;;;1.60;;
55527;SDS011;52818;43.308;21.916;2024-03-29T00:20:35;6.20;;;1.40;;
55527;SDS011;52818;43.308;21.916;2024-03-29T00:22:35;5.10;;;1.50;;
55527;SDS011;52818;43.308;21.916;2024-03-29T00:24:35;7.80;;;1.80;;
55527;SDS011;52818;43.308;21.916;2024-03-29T00:26:35;5.50;;;1.50;;
55527;SDS011;52818;43.308;21.916;2024-03-29T00:28:36;4.80;;;1.30;;
55527;SDS011;52818;43.308;21.916;2024-03-29T00:30:36;7.30;;;1.70;;
55527;SDS011;52818;43.308;21.916;2024-03-29T00:32:36;4.10;;;1.10;;
55527;SDS011;52818;43.308;21.916;2024-03-29T00:34:36;7.00;;;1.40;;
55527;SDS011;52818;43.308;21.916;2024-03-29T00:36:36;6.20;;;;;
55527;SDS011;52818;43.308;21.916;2024-03-29T00:38:36;5.00;;;;;
55527;SDS011;52818;43.308;21.916;2024-03-29T00:40:36;5.70;;;1.30;;
55527;SDS011;52818;43.308;21.916;2024-03-29T00:42:36;5.10;;;1.60;;
55527;SDS011;52818;43.308;21.916;2024-03-29T00:44:36;7.10;;;1.50;;
55527;SDS011;52818;43.308;21.916;2024-03-29T00:46:37;6.50;;;;;
55527;SDS011;52818;43.308;21.916;2024-03-29T00:48:37;5.90;;;1.40;;
55527;SDS011;52818;43.308;21.916;2024-03-29T00:50:37;8.10;;;1.60;;
55527;SDS011;52818;43.308;21.916;2024-03-29T00:52:37;4.80;;;;;
55527;SDS011;52818;43.308;21.916;2024-03-29T00:54:37;5.00;;;1.80;;
55527;SDS011;52818;43.308;21.916;2024-03-29T00:56:37;8.20;;;2.00;;
55527;SDS011;52818;43.308;21.916;2024-03-29T00:58:37;6.20;;;2.10;;
55527;SDS011;52818;43.308;21.916;2024-03-29T01:00:37;6.00;;;2.40;;
55527;SDS011;52818;43.308;21.916;2024-03-29T01:02:37;6.60;;;2.30;;
55527;SDS011;52818;43.308;21.916;2024-03-29T01:04:38;4.20;;;1.40;;
55527;SDS011;52818;43.308;21.916;2024-03-29T01:06:38;3.80;;;1.50;;
55527;SDS011;52818;43.308;21.916;2024-03-29T01:08:38;4.70;;;1.40;;
55527;SDS011;52818;43.308;21.916;2024-03-29T01:10:38;5.10;;;;;
55527;SDS011;52818;43.308;21.916;2024-03-29T01:12:38;5.00;;;1.30;;
55527;SDS011;52818;43.308;21.916;2024-03-29T01:14:38;8.90;;;1.80;;
55527;SDS011;52818;43.308;21.916;2024-03-29T01:16:38;5.40;;;1.70;;
55527;SDS011;52818;43.308;21.916;2024-03-29T01:18:38;5.00;;;1.50;;
55527;SDS011;52818;43.308;21.916;2024-03-29T01:20:38;4.80;;;1.30;;
55527;SDS011;52818;43.308;21.916;2024-03-29T01:22:39;4.30;;;1.70;;
55527;SDS011;52818;43.308;21.916;2024-03-29T01:24:39;9.10;;;2.10;;
55527;SDS011;52818;43.308;21.916;2024-03-29T01:26:39;7.40;;;;;
55527;SDS011;52818;43.308;21.916;2024-03-29T01:28:39;7.60;;;1.90;;
55527;SDS011;52818;43.308;21.916;2024-03-29T01:30:39;6.40;;;1.70;;
55527;SDS011;52818;43.308;21.916;2024-03-29T01:32:39;6.50;;;;;
55527;SDS011;52818;43.308;21.916;2024-03-29T01:34:39;6.00;;;1.80;;
55527;SDS011;52818;43.308;21.916;2024-03-29T01:36:39;5.40;;;2.30;;
55527;SDS011;52818;43.308;21.916;2024-03-29T01:38:39;5.80;;;2.20;;
55527;SDS011;52818;43.308;21.916;2024-03-29T01:40:40;4.20;;;1.60;;
55527;SDS011;52818;43.308;21.916;2024-03-29T01:42:40;6.60;;;1.80;;
55527;SDS011;52818;43.308;21.916;2024-03-29T01:44:40;6.20;;;1.90;;
55527;SDS011;52818;43.308;21.916;2024-03-29T01:46:40;6.50;;;1.60;;
55527;SDS011;52818;43.308;21.916;2024-03-29T01:48:40;5.60;;;1.50;;
55527;SDS011;52818;43.308;21.916;2024-03-29T01:50:40;5.00;;;1.40;;
55527;SDS011;52818;43.308;21.916;2024-03-29T01:52:40;5.80;;;1.30;;
55527;SDS011;52818;43.308;21.916;2024-03-29T01:54:40;5.10;;;1.40;;
55527;SDS011;52818;43.308;21.916;2024-03-29T01:56:40;4.20;;;1.50;;
55527;SDS011;52818;43.308;21.916;2024-03-29T01:58:40;5.90;;;1.40;;
55527;SDS011;52818;43.308;21.916;2024-03-29T02:00:42;6.10;;;1.50;;
55527;SDS011;52818;43.308;21.916;2024-03-29T02:02:41;4.50;;;1.40;;
55527;SDS011;52818;43.308;21.916;2024-03-29T02:04:41;4.80;;;1.50;;
55527;SDS011;52818;43.308;21.916;2024-03-29T02:06:41;4.60;;;1.70;;
55527;SDS011;52818;43.308;21.916;2024-03-29T02:08:41;5.60;;;;;
55527;SDS011;52818;43.308;21.916;2024-03-29T02:10:41;5.40;;;2.00;;
55527;SDS011;52818;43.308;21.916;2024-03-29T02:12:41;6.10;;;2.30;;
55527;SDS011;52818;43.308;21.916;2024-03-29T02:14:41;5.70;;;2.10;;
55527;SDS011;52818;43.308;21.916;2024-03-29T02:16:41;7.40;;;;;
55527;SDS011;52818;43.308;21.916;2024-03-29T02:18:41;4.60;;;2.00;;
55527;SDS011;52818;43.308;21.916;2024-03-29T02:20:41;6.90;;;2.50;;
55527;SDS011;52818;43.308;21.916;2024-03-29T02:22:45;6.50;;;2.30;;
55527;SDS011;52818;43.308;21.916;2024-03-29T02:24:42;7.90;;;3.40;;
55527;SDS011;52818;43.308;21.916;2024-03-29T02:26:42;8.50;;;3.50;;
55527;SDS011;52818;43.308;21.916;2024-03-29T02:28:42;10.20;;;4.20;;
55527;SDS011;52818;43.308;21.916;2024-03-29T02:30:42;9.10;;;3.60;;
55527;SDS011;52818;43.308;21.916;2024-03-29T02:32:42;9.50;;;3.70;;
55527;SDS011;52818;43.308;21.916;2024-03-29T02:34:42;8.90;;;;;
55527;SDS011;52818;43.308;21.916;2024-03-29T02:36:42;7.70;;;3.60;;
55527;SDS011;52818;43.308;21.916;2024-03-29T02:38:42;8.20;;;3.70;;
55527;SDS011;52818;43.308;21.916;2024-03-29T02:40:43;5.00;;;3.10;;
55527;SDS011;52818;43.308;21.916;2024-03-29T02:42:42;6.30;;;3.30;;
55527;SDS011;52818;43.308;21.916;2024-03-29T02:44:43;7.40;;;3.20;;
55527;SDS011;52818;43.308;21.916;2024-03-29T02:46:43;7.70;;;3.60;;
55527;SDS011;52818;43.308;21.916;2024-03-29T02:48:43;7.50;;;3.40;;
55527;SDS011;52818;43.308;21.916;2024-03-29T02:50:43;7.80;;;3.80;;
55527;SDS011;52818;43.308;21.916;2024-03-29T02:52:43;6.50;;;3.60;;
55527;SDS011;52818;43.308;21.916;2024-03-29T02:54:43;9.10;;;4.40;;
55527;SDS011;52818;43.308;21.916;2024-03-29T02:56:43;10.00;;;;;
55527;SDS011;52818;43.308;21.916;2024-03-29T02:58:43;7.00;;;;;
55527;SDS011;52818;43.308;21.916;2024-03-29T03:00:43;8.10;;;;;
55527;SDS011;52818;43.308;21.916;2024-03-29T03:02:44;10.60;;;4.50;;
55527;SDS011;52818;43.308;21.916;2024-03-29T03:04:44;8.90;;;4.40;;
55527;SDS011;52818;43.308;21.916;2024-03-29T03:06:44;9.90;;;3.80;;
55527;SDS011;52818;43.308;21.916;2024-03-29T03:08:44;7.30;;;3.40;;
55527;SDS011;52818;43.308;21.916;2024-03-29T03:10:44;8.80;;;3.70;;
55527;SDS011;52818;43.308;21.916;2024-03-29T03:12:44;7.40;;;3.10;;
55527;SDS011;52818;43.308;21.916;2024-03-29T03:14:44;6.80;;;;;
55527;SDS011;52818;43.308;21.916;2024-03-29T03:16:44;7.60;;;2.90;;
55527;SDS011;52818;43.308;21.916;2024-03-29T03:18:44;6.20;;;3.00;;
55527;SDS011;52818;43.308;21.916;2024-03-29T03:20:49;8.20;;;2.80;;
55527;SDS011;52818;43.308;21.916;2024-03-29T03:22:44;8.40;;;2.90;;
55527;SDS011;52818;43.308;21.916;2024-03-29T03:24:45;5.30;;;2.40;;
55527;SDS011;52818;43.308;21.916;2024-03-29T03:26:45;5.90;;;2.60;;
55527;SDS011;52818;43.308;21.916;2024-03-29T03:28:45;9.00;;;2.90;;
55527;SDS011;52818;43.308;21.916;2024-03-29T03:30:45;6.60;;;2.60;;
55527;SDS011;52818;43.308;21.916;2024-03-29T03:32:45;6.90;;;2.70;;
55527;SDS011;52818;43.308;21.916;2024-03-29T03:34:45;6.70;;;2.60;;
55527;SDS011;52818;43.308;21.916;2024-03-29T03:36:45;10.10;;;3.10;;
55527;SDS011;52818;43.308;21.916;2024-03-29T03:38:45;7.90;;;2.80;;
55527;SDS011;52818;43.308;21.916;2024-03-29T03:40:45;5.60;;;3.10;;
55527;SDS011;52818;43.308;21.916;2024-03-29T03:42:45;7.90;;;3.30;;
55527;SDS011;52818;43.308;21.916;2024-03-29T03:44:46;7.00;;;3.20;;
55527;SDS011;52818;43.308;21.916;2024-03-29T03:46:45;10.00;;;3.50;;
55527;SDS011;52818;43.308;21.916;2024-03-29T03:48:46;8.20;;;3.70;;
55527;SDS011;52818;43.308;21.916;2024-03-29T03:50:46;6.40;;;3.60;;
55527;SDS011;52818;43.308;21.916;2024-03-29T03:52:46;7.30;;;;;
55527;SDS011;52818;43.308;21.916;2024-03-29T03:54:46;6.30;;;;;
55527;SDS011;52818;43.308;21.916;2024-03-29T03:56:46;8.80;;;3.40;;
55527;SDS011;52818;43.308;21.916;2024-03-29T03:58:46;9.00;;;3.50;;
55527;SDS011;52818;43.308;21.916;2024-03-29T04:01:16;6.70;;;2.80;;
55527;SDS011;52818;43.308;21.916;2024-03-29T04:03:16;9.50;;;3.20;;
55527;SDS011;52818;43.308;21.916;2024-03-29T04:05:16;10.10;;;3.00;;
55527;SDS011;52818;43.308;21.916;2024-03-29T04:07:16;8.00;;;2.90;;
55527;SDS011;52818;43.308;21.916;2024-03-29T04:09:17;6.30;;;2.70;;
55527;SDS011;52818;43.308;21.916;2024-03-29T04:11:17;7.70;;;2.80;;
55527;SDS011;52818;43.308;21.916;2024-03-29T04:13:18;7.30;;;2.40;;
55527;SDS011;52818;43.308;21.916;2024-03-29T04:15:17;6.30;;;;;
55527;SDS011;52818;43.308;21.916;2024-03-29T04:17:17;6.80;;;3.10;;
55527;SDS011;52818;43.308;21.916;2024-03-29T04:19:17;8.60;;;4.50;;
55527;SDS011;52818;43.308;21.916;2024-03-29T04:21:17;10.40;;;5.80;;
55527;SDS011;52818;43.308;21.916;2024-03-29T04:23:17;11.50;;;6.10;;
55527;SDS011;52818;43.308;21.916;2024-03-29T04:25:17;11.30;;;5.30;;
55527;SDS011;52818;43.308;21.916;2024-03-29T04:27:18;11.20;;;5.10;;
55527;SDS011;52818;43.308;21.916;2024-03-29T04:29:18;8.60;;;4.60;;
55527;SDS011;52818;43.308;21.916;2024-03-29T04:31:18;8.80;;;4.40;;
55527;SDS011;52818;43.308;21.916;2024-03-29T04:33:18;8.20;;;3.40;;
55527;SDS011;52818;43.308;21.916;2024-03-29T04:35:18;8.10;;;3.30;;
55527;SDS011;52818;43.308;21.916;2024-03-29T04:37:18;8.60;;;3.60;;
55527;SDS011;52818;43.308;21.916;2024-03-29T04:39:18;9.10;;;3.80;;
55527;SDS011;52818;43.308;21.916;2024-03-29T04:41:18;9.50;;;4.00;;
55527;SDS011;52818;43.308;21.916;2024-03-29T04:43:20;10.80;;;5.60;;
55527;SDS011;52818;43.308;21.916;2024-03-29T04:45:19;16.40;;;10.50;;
55527;SDS011;52818;43.308;21.916;2024-03-29T04:47:19;17.60;;;10.30;;
55527;SDS011;52818;43.308;21.916;2024-03-29T04:49:22;15.30;;;8.90;;
55527;SDS011;52818;43.308;21.916;2024-03-29T04:51:19;13.80;;;7.80;;
55527;SDS011;52818;43.308;21.916;2024-03-29T04:53:19;12.40;;;6.80;;
55527;SDS011;52818;43.308;21.916;2024-03-29T04:55:19;11.00;;;5.60;;
55527;SDS011;52818;43.308;21.916;2024-03-29T04:57:19;9.40;;;4.90;;
55527;SDS011;52818;43.308;21.916;2024-03-29T04:59:19;9.20;;;4.80;;
55527;SDS011;52818;43.308;21.916;2024-03-29T05:01:19;10.20;;;4.00;;
55527;SDS011;52818;43.308;21.916;2024-03-29T05:03:20;9.20;;;3.80;;
55527;SDS011;52818;43.308;21.916;2024-03-29T05:05:20;8.00;;;4.10;;
55527;SDS011;52818;43.308;21.916;2024-03-29T05:07:20;7.90;;;3.70;;
55527;SDS011;52818;43.308;21.916;2024-03-29T05:09:20;9.30;;;4.60;;
55527;SDS011;52818;43.308;21.916;2024-03-29T05:11:20;8.50;;;3.90;;
55527;SDS011;52818;43.308;21.916;2024-03-29T05:13:20;12.30;;;6.10;;
55527;SDS011;52818;43.308;21.916;2024-03-29T05:15:20;16.60;;;9.00;;
55527;SDS011;52818;43.308;21.916;2024-03-29T05:17:20;7.90;;;4.60;;
55527;SDS011;52818;43.308;21.916;2024-03-29T05:19:20;12.10;;;5.50;;
55527;SDS011;52818;43.308;21.916;2024-03-29T05:21:21;13.70;;;6.70;;
55527;SDS011;52818;43.308;21.916;2024-03-29T05:23:21;15.70;;;7.70;;
55527;SDS011;52818;43.308;21.916;2024-03-29T05:25:21;18.80;;;9.20;;
55527;SDS011;52818;43.308;21.916;2024-03-29T05:27:21;15.40;;;7.40;;
55527;SDS011;52818;43.308;21.916;2024-03-29T05:29:21;14.60;;;7.20;;
55527;SDS011;52818;43.308;21.916;2024-03-29T05:31:21;13.60;;;6.90;;
55527;SDS011;52818;43.308;21.916;2024-03-29T05:33:21;14.50;;;7.80;;
55527;SDS011;52818;43.308;21.916;2024-03-29T05:35:21;;;;8.00;;
55527;SDS011;52818;43.308;21.916;2024-03-29T05:37:22;15.30;;;8.30;;
55527;SDS011;52818;43.308;21.916;2024-03-29T05:39:22;13.90;;;7.50;;
55527;SDS011;52818;43.308;21.916;2024-03-29T05:41:22;16.60;;;7.80;;
55527;SDS011;52818;43.308;21.916;2024-03-29T05:43:22;15.80;;;7.40;;
55527;SDS011;52818;43.308;21.916;2024-03-29T05:45:22;12.40;;;7.30;;
55527;SDS011;52818;43.308;21.916;2024-03-29T05:47:22;14.60;;;7.50;;
55527;SDS011;52818;43.308;21.916;2024-03-29T05:49:22;15.90;;;8.10;;
55527;SDS011;52818;43.308;21.916;2024-03-29T05:51:22;17.70;;;9.60;;
55527;SDS011;52818;43.308;21.916;2024-03-29T05:53:22;18.20;;;8.80;;
55527;SDS011;52818;43.308;21.916;2024-03-29T05:55:22;15.60;;;9.10;;
55527;SDS011;52818;43.308;21.916;2024-03-29T05:57:22;14.80;;;8.80;;
55527;SDS011;52818;43.308;21.916;2024-03-29T05:59:23;20.50;;;9.60;;
55527;SDS011;52818;43.308;21.916;2024-03-29T06:01:23;19.10;;;9.30;;
55527;SDS011;52818;43.308;21.916;2024-03-29T06:03:23;18.20;;;9.10;;
55527;SDS011;52818;43.308;21.916;2024-03-29T06:05:23;16.50;;;9.20;;
55527;SDS011;52818;43.308;21.916;2024-03-29T06:07:23;15.00;;;8.80;;
55527;SDS011;52818;43.308;21.916;2024-03-29T06:09:23;19.20;;;9.00;;
55527;SDS011;52818;43.308;21.916;2024-03-29T06:11:23;17.00;;;8.40;;
55527;SDS011;52818;43.308;21.916;2024-03-29T06:13:23;15.40;;;8.10;;
55527;SDS011;52818;43.308;21.916;2024-03-29T06:15:23;14.60;;;7.70;;
55527;SDS011;52818;43.308;21.916;2024-03-29T06:17:23;15.70;;;8.40;;
55527;SDS011;52818;43.308;21.916;2024-03-29T06:19:24;17.40;;;7.80;;
55527;SDS011;52818;43.308;21.916;2024-03-29T06:21:24;14.90;;;7.30;;
55527;SDS011;52818;43.308;21.916;2024-03-29T06:23:24;14.80;;;;;
55527;SDS011;52818;43.308;21.916;2024-03-29T06:25:24;15.20;;;7.10;;
55527;SDS011;52818;43.308;21.916;2024-03-29T06:27:24;15.00;;;;;
55527;SDS011;52818;43.308;21.916;2024-03-29T06:29:24;13.80;;;6.80;;
55527;SDS011;52818;43.308;21.916;2024-03-29T06:31:24;12.10;;;6.30;;
55527;SDS011;52818;43.308;21.916;2024-03-29T06:33:24;9.40;;;4.70;;
55527;SDS011;52818;43.308;21.916;2024-03-29T06:35:24;13.10;;;4.80;;
55527;SDS011;52818;43.308;21.916;2024-03-29T06:37:24;10.10;;;5.10;;
55527;SDS011;52818;43.308;21.916;2024-03-29T06:39:25;10.40;;;4.90;;
55527;SDS011;52818;43.308;21.916;2024-03-29T06:41:25;8.70;;;4.60;;
55527;SDS011;52818;43.308;21.916;2024-03-29T06:43:25;10.90;;;4.80;;
55527;SDS011;52818;43.308;21.916;2024-03-29T06:45:25;10.60;;;5.00;;
55527;SDS011;52818;43.308;21.916;2024-03-29T06:47:27;7.90;;;4.50;;
55527;SDS011;52818;43.308;21.916;2024-03-29T06:49:25;9.80;;;5.40;;
55527;SDS011;52818;43.308;21.916;2024-03-29T06:51:25;11.50;;;5.60;;
55527;SDS011;52818;43.308;21.916;2024-03-29T06:53:25;9.30;;;5.20;;
55527;SDS011;52818;43.308;21.916;2024-03-29T06:55:25;9.00;;;4.40;;
55527;SDS011;52818;43.308;21.916;2024-03-29T06:57:26;10.90;;;4.30;;
55527;SDS011;52818;43.308;21.916;2024-03-29T06:59:26;11.70;;;4.70;;
55527;SDS011;52818;43.308;21.916;2024-03-29T07:01:26;12.50;;;4.10;;
55527;SDS011;52818;43.308;21.916;2024-03-29T07:03:26;9.90;;;4.20;;
55527;SDS011;52818;43.308;21.916;2024-03-29T07:05:26;9.10;;;4.40;;
55527;SDS011;52818;43.308;21.916;2024-03-29T07:07:26;10.60;;;3.70;;
55527;SDS011;52818;43.308;21.916;2024-03-29T07:09:26;8.80;;;4.10;;
55527;SDS011;52818;43.308;21.916;2024-03-29T07:11:26;8.30;;;3.50;;
55527;SDS011;52818;43.308;21.916;2024-03-29T07:13:28;12.30;;;3.60;;
55527;SDS011;52818;43.308;21.916;2024-03-29T07:15:26;6.90;;;2.90;;
55527;SDS011;52818;43.308;21.916;2024-03-29T07:17:26;7.40;;;3.20;;
55527;SDS011;52818;43.308;21.916;2024-03-29T07:19:26;8.00;;;3.40;;
55527;SDS011;52818;43.308;21.916;2024-03-29T07:21:27;7.50;;;3.20;;
55527;SDS011;52818;43.308;21.916;2024-03-29T07:23:27;6.30;;;3.10;;
55527;SDS011;52818;43.308;21.916;2024-03-29T07:25:27;8.30;;;2.80;;
55527;SDS011;52818;43.308;21.916;2024-03-29T07:27:27;5.70;;;2.40;;
55527;SDS011;52818;43.308;21.916;2024-03-29T07:29:27;6.10;;;2.50;;
55527;SDS011;52818;43.308;21.916;2024-03-29T07:31:27;6.00;;;2.70;;
55527;SDS011;52818;43.308;21.916;2024-03-29T07:33:27;6.80;;;2.30;;
55527;SDS011;52818;43.308;21.916;2024-03-29T07:35:27;5.70;;;;;
55527;SDS011;52818;43.308;21.916;2024-03-29T07:37:27;6.50;;;2.90;;
55527;SDS011;52818;43.308;21.916;2024-03-29T07:39:27;7.20;;;3.00;;
55527;SDS011;52818;43.308;21.916;2024-03-29T07:41:27;7.60;;;2.60;;
55527;SDS011;52818;43.308;21.916;2024-03-29T07:43:34;6.80;;;;;
55527;SDS011;52818;43.308;21.916;2024-03-29T07:45:28;4.50;;;2.10;;
55527;SDS011;52818;43.308;21.916;2024-03-29T07:47:28;7.90;;;2.40;;
55527;SDS011;52818;43.308;21.916;2024-03-29T07:49:28;6.20;;;2.20;;
55527;SDS011;52818;43.308;21.916;2024-03-29T07:51:28;8.10;;;2.50;;
55527;SDS011;52818;43.308;21.916;2024-03-29T07:53:28;6.90;;;2.70;;
55527;SDS011;52818;43.308;21.916;2024-03-29T07:55:28;5.80;;;2.40;;
55527;SDS011;52818;43.308;21.916;2024-03-29T07:57:28;5.90;;;;;
55527;SDS011;52818;43.308;21.916;2024-03-29T07:59:28;5.10;;;2.20;;
55527;SDS011;52818;43.308;21.916;2024-03-29T08:01:59;6.60;;;2.30;;
55527;SDS011;52818;43.308;21.916;2024-03-29T08:03:59;4.70;;;2.20;;
55527;SDS011;52818;43.308;21.916;2024-03-29T08:05:59;6.50;;;2.30;;
55527;SDS011;52818;43.308;21.916;2024-03-29T08:07:59;4.80;;;1.90;;
55527;SDS011;52818;43.308;21.916;2024-03-29T08:09:59;7.70;;;2.50;;
55527;SDS011;52818;43.308;21.916;2024-03-29T08:11:59;6.70;;;2.20;;
55527;SDS011;52818;43.308;21.916;2024-03-29T08:13:59;9.40;;;2.40;;
55527;SDS011;52818;43.308;21.916;2024-03-29T08:16:00;5.80;;;2.10;;
55527;SDS011;52818;43.308;21.916;2024-03-29T08:17:59;7.30;;;2.50;;
55527;SDS011;52818;43.308;21.916;2024-03-29T08:19:59;7.80;;;2.70;;
55527;SDS011;52818;43.308;21.916;2024-03-29T08:21:59;7.60;;;;;
55527;SDS011;52818;43.308;21.916;2024-03-29T08:24:00;6.60;;;2.40;;
55527;SDS011;52818;43.308;21.916;2024-03-29T08:26:00;6.10;;;2.70;;
55527;SDS011;52818;43.308;21.916;2024-03-29T08:28:00;8.20;;;2.60;;
55527;SDS011;52818;43.308;21.916;2024-03-29T08:30:00;8.00;;;2.20;;
55527;SDS011;52818;43.308;21.916;2024-03-29T08:32:00;8.20;;;2.10;;
55527;SDS011;52818;43.308;21.916;2024-03-29T08:34:00;6.80;;;;;
55527;SDS011;52818;43.308;21.916;2024-03-29T08:36:00;7.00;;;2.30;;
55527;SDS011;52818;43.308;21.916;2024-03-29T08:38:00;5.20;;;2.00;;
55527;SDS011;52818;43.308;21.916;2024-03-29T08:40:00;7.00;;;2.30;;
55527;SDS011;52818;43.308;21.916;2024-03-29T08:42:01;6.90;;;2.50;;
55527;SDS011;52818;43.308;21.916;2024-03-29T08:44:01;5.70;;;2.20;;
55527;SDS011;52818;43.308;21.916;2024-03-29T08:46:01;7.50;;;2.70;;
55527;SDS011;52818;43.308;21.916;2024-03-29T08:48:01;8.40;;;2.10;;
55527;SDS011;52818;43.308;21.916;2024-03-29T08:50:01;8.00;;;;;
55527;SDS011;52818;43.308;21.916;2024-03-29T08:52:01;9.20;;;2.20;;
55527;SDS011;52818;43.308;21.916;2024-03-29T08:54:01;4.90;;;2.10;;
55527;SDS011;52818;43.308;21.916;2024-03-29T08:56:01;7.40;;;1.70;;
55527;SDS011;52818;43.308;21.916;2024-03-29T08:58:02;6.70;;;2.10;;
55527;SDS011;52818;43.308;21.916;2024-03-29T09:00:02;5.00;;;1.60;;
55527;SDS011;52818;43.308;21.916;2024-03-29T09:02:03;4.90;;;1.50;;
55527;SDS011;52818;43.308;21.916;2024-03-29T09:04:02;5.50;;;1.60;;
55527;SDS011;52818;43.308;21.916;2024-03-29T09:06:02;7.50;;;1.70;;
55527;SDS011;52818;43.308;21.916;2024-03-29T09:08:02;6.80;;;2.00;;
55527;SDS011;52818;43.308;21.916;2024-03-29T09:10:02;6.50;;;1.40;;
55527;SDS011;52818;43.308;21.916;2024-03-29T09:12:02;5.60;;;1.50;;
55527;SDS011;52818;43.308;21.916;2024-03-29T09:14:02;8.10;;;2.50;;
55527;SDS011;52818;43.308;21.916;2024-03-29T09:16:02;9.20;;;3.10;;
55527;SDS011;52818;43.308;21.916;2024-03-29T09:18:02;7.40;;;2.80;;
55527;SDS011;52818;43.308;21.916;2024-03-29T09:20:03;7.80;;;1.80;;
55527;SDS011;52818;43.308;21.916;2024-03-29T09:22:03;4.00;;;1.60;;
55527;SDS011;52818;43.308;21.916;2024-03-29T09:24:03;6.00;;;2.40;;
55527;SDS011;52818;43.308;21.916;2024-03-29T09:26:04;6.10;;;1.90;;
55527;SDS011;52818;43.308;21.916;2024-03-29T09:28:03;8.50;;;2.10;;
55527;SDS011;52818;43.308;21.916;2024-03-29T09:30:03;6.70;;;1.70;;
55527;SDS011;52818;43.308;21.916;2024-03-29T09:32:03;5.90;;;2.10;;
55527;SDS011;52818;43.308;21.916;2024-03-29T09:34:03;3.80;;;1.80;;
55527;SDS011;52818;43.308;21.916;2024-03-29T09:36:03;6.70;;;2.40;;
55527;SDS011;52818;43.308;21.916;2024-03-29T09:38:04;;;;1.70;;
55527;SDS011;52818;43.308;21.916;2024-03-29T09:40:04;6.90;;;1.80;;
55527;SDS011;52818;43.308;21.916;2024-03-29T09:42:04;6.30;;;2.00;;
55527;SDS011;52818;43.308;21.916;2024-03-29T09:44:04;7.60;;;2.50;;
55527;SDS011;52818;43.308;21.916;2024-03-29T09:46:04;5.90;;;1.80;;
55527;SDS011;52818;43.308;21.916;2024-03-29T09:48:04;7.70;;;2.00;;
55527;SDS011;52818;43.308;21.916;2024-03-29T09:50:04;7.20;;;2.40;;
55527;SDS011;52818;43.308;21.916;2024-03-29T09:52:04;7.00;;;2.60;;
55527;SDS011;52818;43.308;21.916;2024-03-29T09:54:04;10.00;;;2.70;;
55527;SDS011;52818;43.308;21.916;2024-03-29T09:56:04;7.40;;;2.50;;
55527;SDS011;52818;43.308;21.916;2024-03-29T09:58:05;9.40;;;2.80;;
55527;SDS011;52818;43.308;21.916;2024-03-29T10:00:05;10.70;;;2.50;;
55527;SDS011;52818;43.308;21.916;2024-03-29T10:02:14;9.60;;;2.70;;
55527;SDS011;52818;43.308;21.916;2024-03-29T10:04:05;9.30;;;3.00;;
55527;SDS011;52818;43.308;21.916;2024-03-29T10:06:05;11.60;;;2.60;;
55527;SDS011;52818;43.308;21.916;2024-03-29T10:08:05;10.50;;;;;
55527;SDS011;52818;43.308;21.916;2024-03-29T10:10:05;9.80;;;2.40;;
55527;SDS011;52818;43.308;21.916;2024-03-29T10:12:05;10.80;;;2.90;;
55527;SDS011;52818;43.308;21.916;2024-03-29T10:14:05;9.90;;;2.70;;
55527;SDS011;52818;43.308;21.916;2024-03-29T10:16:35;10.00;;;2.40;;
55527;SDS011;52818;43.308;21.916;2024-03-29T10:18:35;12.80;;;2.80;;
55527;SDS011;52818;43.308;21.916;2024-03-29T10:20:35;7.60;;;2.00;;
55527;SDS011;52818;43.308;21.916;2024-03-29T10:22:36;7.80;;;2.20;;
55527;SDS011;52818;43.308;21.916;2024-03-29T10:24:36;9.20;;;2.30;;
55527;SDS011;52818;43.308;21.916;2024-03-29T10:26:37;8.30;;;2.10;;
55527;SDS011;52818;43.308;21.916;2024-03-29T10:28:36;7.50;;;2.00;;
55527;SDS011;52818;43.308;21.916;2024-03-29T10:30:36;6.10;;;1.80;;
55527;SDS011;52818;43.308;21.916;2024-03-29T10:32:37;6.60;;;2.00;;
55527;SDS011;52818;43.308;21.916;2024-03-29T10:34:36;8.00;;;2.40;;
55527;SDS011;52818;43.308;21.916;2024-03-29T10:36:36;14.20;;;2.80;;
55527;SDS011;52818;43.308;21.916;2024-03-29T10:38:36;8.70;;;2.20;;
55527;SDS011;52818;43.308;21.916;2024-03-29T10:40:37;;;;2.10;;
55527;SDS011;52818;43.308;21.916;2024-03-29T10:42:37;9.70;;;2.30;;
55527;SDS011;52818;43.308;21.916;2024-03-29T10:44:37;7.60;;;;;
55527;SDS011;52818;43.308;21.916;2024-03-29T10:46:37;9.50;;;2.60;;
55527;SDS011;52818;43.308;21.916;2024-03-29T10:48:37;;;;2.20;;
55527;SDS011;52818;43.308;21.916;2024-03-29T10:50:37;9.30;;;3.00;;
55527;SDS011;52818;43.308;21.916;2024-03-29T10:52:37;8.90;;;2.60;;
55527;SDS011;52818;43.308;21.916;2024-03-29T10:54:37;8.20;;;2.30;;
55527;SDS011;52818;43.308;21.916;2024-03-29T10:56:37;10.20;;;2.40;;
55527;SDS011;52818;43.308;21.916;2024-03-29T10:58:38;9.60;;;2.30;;
55527;SDS011;52818;43.308;21.916;2024-03-29T11:00:38;9.10;;;2.10;;
55527;SDS011;52818;43.308;21.916;2024-03-29T11:02:39;8.00;;;2.30;;
55527;SDS011;52818;43.308;21.916;2024-03-29T11:04:38;8.10;;;2.60;;
55527;SDS011;52818;43.308;21.916;2024-03-29T11:06:38;6.80;;;2.20;;
55527;SDS011;52818;43.308;21.916;2024-03-29T11:08:38;8.80;;;2.30;;
55527;SDS011;52818;43.308;21.916;2024-03-29T11:10:39;7.10;;;2.20;;
55527;SDS011;52818;43.308;21.916;2024-03-29T11:12:39;7.00;;;;;
55527;SDS011;52818;43.308;21.916;2024-03-29T11:14:40;5.20;;;2.10;;
55527;SDS011;52818;43.308;21.916;2024-03-29T11:16:39;7.50;;;;;
55527;SDS011;52818;43.308;21.916;2024-03-29T11:18:38;10.40;;;2.80;;
55527;SDS011;52818;43.308;21.916;2024-03-29T11:20:38;10.00;;;2.10;;
55527;SDS011;52818;43.308;21.916;2024-03-29T11:22:39;7.20;;;1.80;;
55527;SDS011;52818;43.308;21.916;2024-03-29T11:24:39;5.50;;;2.00;;
55527;SDS011;52818;43.308;21.916;2024-03-29T11:26:39;6.90;;;;;
55527;SDS011;52818;43.308;21.916;2024-03-29T11:28:39;7.50;;;1.80;;
55527;SDS011;52818;43.308;21.916;2024-03-29T11:30:40;9.60;;;2.00;;
55527;SDS011;52818;43.308;21.916;2024-03-29T11:32:39;7.30;;;1.80;;
55527;SDS011;52818;43.308;21.916;2024-03-29T11:34:43;10.50;;;2.30;;
55527;SDS011;52818;43.308;21.916;2024-03-29T11:36:39;8.60;;;2.40;;
55527;SDS011;52818;43.308;21.916;2024-03-29T11:38:40;9.00;;;2.30;;
55527;SDS011;52818;43.308;21.916;2024-03-29T11:40:39;6.70;;;1.90;;
55527;SDS011;52818;43.308;21.916;2024-03-29T11:42:43;6.10;;;;;
55527;SDS011;52818;43.308;21.916;2024-03-29T11:46:40;5.70;;;1.60;;
55527;SDS011;52818;43.308;21.916;2024-03-29T11:48:40;6.40;;;1.80;;
55527;SDS011;52818;43.308;21.916;2024-03-29T11:50:40;5.40;;;1.70;;
55527;SDS011;52818;43.308;21.916;2024-03-29T11:52:40;6.00;;;2.10;;
55527;SDS011;52818;43.308;21.916;2024-03-29T11:54:40;6.10;;;1.90;;
55527;SDS011;52818;43.308;21.916;2024-03-29T11:56:41;5.30;;;1.70;;